Time;durP1;ratioP1;P1;durP2;ratioP2;P2;SDS_P1;SDS_P2;PMS_P1;PMS_P2;Temp;Humidity;BMP_temperature;BMP_pressure;BME280_temperature;BME280_humidity;BME280_pressure;Samples;Min_cycle;Max_cycle;Signal;HPM_P1;HPM_P2
2023/08/24 00:02:16;;;;;;;12.00;4.38;;;;;;;;;;5017867;28;20129;-66
2023/08/24 00:04:42;;;;;;;9.90;4.65;;;;;;;;;;5022248;28;20040;-66
2023/08/24 00:07:08;;;;;;;12.93;5.38;;;;;;;;;;5003808;28;20040;-65
2023/08/24 00:09:35;;;;;;;15.25;5.38;;;;;;;;;;5018917;28;20779;-66
2023/08/24 00:12:01;;;;;;;10.38;4.65;;;;;;;;;;5017947;28;20384;-66
2023/08/24 00:14:27;;;;;;;13.48;5.40;;;;;;;;;;5001009;28;20106;-66
2023/08/24 00:16:53;;;;;;;11.35;4.78;;;;;;;;;;5017886;28;20038;-65
2023/08/24 00:19:19;;;;;;;11.73;5.32;;;;;;;;;;5000522;28;20694;-65
2023/08/24 00:21:45;;;;;;;11.10;5.05;;;;;;;;;;5018862;28;20041;-65
2023/08/24 00:24:12;;;;;;;14.02;5.32;;;;;;;;;;5017131;28;20103;-65
2023/08/24 00:26:38;;;;;;;9.70;4.63;;;;;;;;;;5001820;28;20037;-65
2023/08/24 00:29:04;;;;;;;13.35;5.10;;;;;;;;;;5017973;28;20306;-65
2023/08/24 00:31:31;;;;;;;10.57;4.90;;;;;;;;;;5017298;28;20060;-66
2023/08/24 00:33:58;;;;;;;11.82;4.85;;;;;;;;;;5004755;28;20059;-66
2023/08/24 00:36:25;;;;;;;10.60;4.40;;;;;;;;;;5019829;28;20318;-66
2023/08/24 00:38:53;;;;;;;10.98;4.70;;;;;;;;;;5020090;28;20066;-65
2023/08/24 00:41:21;;;;;;;10.65;5.20;;;;;;;;;;5019880;28;20040;-65
2023/08/24 00:43:47;;;;;;;11.85;4.72;;;;;;;;;;5019962;28;20664;-65
2023/08/24 00:46:13;;;;;;;11.50;4.90;;;;;;;;;;4999845;28;20041;-67
2023/08/24 00:48:39;;;;;;;13.00;4.82;;;;;;;;;;5001224;28;20040;-67
2023/08/24 00:51:05;;;;;;;10.85;5.07;;;;;;;;;;5019698;28;20583;-67
2023/08/24 00:53:32;;;;;;;9.88;4.80;;;;;;;;;;4998274;28;20143;-66
2023/08/24 00:55:59;;;;;;;11.23;4.90;;;;;;;;;;5000761;28;20297;-66
2023/08/24 00:58:27;;;;;;;11.73;4.45;;;;;;;;;;5016606;28;20043;-67
2023/08/24 01:00:53;;;;;;;14.65;5.30;;;;;;;;;;5021741;28;20033;-67
2023/08/24 01:03:19;;;;;;;11.10;4.88;;;;;;;;;;5017316;28;20045;-66
2023/08/24 01:05:45;;;;;;;12.25;4.72;;;;;;;;;;5016668;28;20714;-66
2023/08/24 01:08:12;;;;;;;10.20;4.78;;;;;;;;;;5018739;28;20033;-67
2023/08/24 01:10:45;;;;;;;12.07;4.78;;;;;;;;;;5020669;28;20538;-67
2023/08/24 01:13:12;;;;;;;10.23;4.70;;;;;;;;;;5015719;28;20444;-67
2023/08/24 01:15:59;;;;;;;11.35;4.45;;;;;;;;;;5019681;28;20032;-67
2023/08/24 01:18:26;;;;;;;10.95;5.20;;;;;;;;;;5015314;28;20061;-66
2023/08/24 01:20:54;;;;;;;11.82;4.60;;;;;;;;;;5017925;28;20409;-67
2023/08/24 01:23:24;;;;;;;12.98;5.05;;;;;;;;;;4998252;28;20041;-67
2023/08/24 01:25:54;;;;;;;15.60;5.10;;;;;;;;;;5000254;28;20363;-67
2023/08/24 01:28:21;;;;;;;9.93;4.50;;;;;;;;;;5011592;28;20092;-65
2023/08/24 01:30:48;;;;;;;10.43;4.65;;;;;;;;;;5015861;28;20029;-65
2023/08/24 01:33:14;;;;;;;9.48;4.75;;;;;;;;;;4998713;28;20467;-66
2023/08/24 01:35:41;;;;;;;12.52;4.43;;;;;;;;;;5019990;28;20243;-65
2023/08/24 01:38:12;;;;;;;14.93;4.90;;;;;;;;;;5018131;28;20470;-65
2023/08/24 01:40:57;;;;;;;10.95;4.65;;;;;;;;;;5019721;28;20065;-65
2023/08/24 01:43:26;;;;;;;10.27;4.82;;;;;;;;;;5017253;28;20714;-65
2023/08/24 01:45:53;;;;;;;13.00;4.85;;;;;;;;;;5020419;28;20789;-65
2023/08/24 01:48:20;;;;;;;10.55;4.78;;;;;;;;;;5015703;28;20109;-66
2023/08/24 01:50:46;;;;;;;10.20;4.65;;;;;;;;;;5019862;28;20033;-65
2023/08/24 01:53:12;;;;;;;11.57;4.80;;;;;;;;;;5015083;28;20300;-66
2023/08/24 01:55:38;;;;;;;9.88;4.85;;;;;;;;;;5017821;28;20029;-65
2023/08/24 01:58:05;;;;;;;9.25;4.60;;;;;;;;;;5020532;28;20033;-65
2023/08/24 02:00:31;;;;;;;10.30;4.75;;;;;;;;;;4994303;28;20033;-65
2023/08/24 02:02:57;;;;;;;12.55;4.45;;;;;;;;;;5016686;28;20042;-65
2023/08/24 02:05:27;;;;;;;11.77;4.82;;;;;;;;;;5017805;28;20048;-66
2023/08/24 02:07:54;;;;;;;9.98;4.43;;;;;;;;;;5012988;28;20033;-66
2023/08/24 02:10:20;;;;;;;11.02;4.70;;;;;;;;;;4997604;28;20041;-66
2023/08/24 02:12:46;;;;;;;10.15;5.07;;;;;;;;;;5000644;28;20344;-65
2023/08/24 02:15:12;;;;;;;12.27;4.53;;;;;;;;;;5016708;28;20081;-66
2023/08/24 02:17:38;;;;;;;11.95;4.53;;;;;;;;;;5021170;28;20029;-65
2023/08/24 02:20:06;;;;;;;11.50;4.90;;;;;;;;;;5017539;28;20124;-65
2023/08/24 02:22:32;;;;;;;12.23;4.50;;;;;;;;;;4998915;28;20349;-65
2023/08/24 02:24:58;;;;;;;13.10;4.13;;;;;;;;;;5020407;28;20495;-66
2023/08/24 02:27:24;;;;;;;8.68;4.45;;;;;;;;;;5018540;28;20479;-65
2023/08/24 02:29:50;;;;;;;11.15;4.50;;;;;;;;;;5018448;28;20036;-66
2023/08/24 02:32:16;;;;;;;11.93;4.57;;;;;;;;;;5014641;28;20029;-65
2023/08/24 02:34:42;;;;;;;10.65;4.40;;;;;;;;;;5016955;28;20029;-65
2023/08/24 02:37:08;;;;;;;13.02;4.40;;;;;;;;;;5017511;28;20055;-66
2023/08/24 02:39:35;;;;;;;10.32;4.47;;;;;;;;;;5015510;28;20034;-65
2023/08/24 02:42:01;;;;;;;10.93;4.22;;;;;;;;;;5017852;28;20136;-65
2023/08/24 02:44:27;;;;;;;10.25;4.38;;;;;;;;;;5016021;28;20442;-65
2023/08/24 02:46:54;;;;;;;9.55;4.22;;;;;;;;;;5020481;28;20032;-65
2023/08/24 02:49:20;;;;;;;10.85;4.60;;;;;;;;;;5019932;28;20041;-65
2023/08/24 02:51:46;;;;;;;10.20;4.78;;;;;;;;;;5004775;28;20257;-66
2023/08/24 02:54:13;;;;;;;9.15;4.38;;;;;;;;;;5017441;28;20033;-66
2023/08/24 02:56:39;;;;;;;15.02;4.60;;;;;;;;;;5025451;28;20384;-65
2023/08/24 02:59:05;;;;;;;9.60;3.97;;;;;;;;;;5021171;28;20072;-65
2023/08/24 03:01:31;;;;;;;10.65;4.72;;;;;;;;;;5000996;28;20428;-65
2023/08/24 03:03:57;;;;;;;10.02;4.22;;;;;;;;;;5006143;28;20056;-66
2023/08/24 03:06:24;;;;;;;9.35;4.43;;;;;;;;;;5015293;28;20146;-66
2023/08/24 03:08:50;;;;;;;8.25;4.03;;;;;;;;;;5004735;28;20674;-65
2023/08/24 03:11:16;;;;;;;9.23;4.13;;;;;;;;;;5016859;28;20060;-66
2023/08/24 03:13:43;;;;;;;13.15;4.00;;;;;;;;;;5020500;28;20439;-66
2023/08/24 03:16:09;;;;;;;11.27;4.43;;;;;;;;;;5019514;28;20142;-65
2023/08/24 03:18:36;;;;;;;8.93;4.13;;;;;;;;;;5018635;28;20475;-67
2023/08/24 03:21:02;;;;;;;11.65;4.18;;;;;;;;;;5003136;28;20032;-66
2023/08/24 03:23:28;;;;;;;8.57;4.30;;;;;;;;;;5018407;28;20029;-66
2023/08/24 03:25:56;;;;;;;10.50;4.35;;;;;;;;;;5019415;28;20508;-65
2023/08/24 03:28:22;;;;;;;11.73;4.20;;;;;;;;;;5018657;28;20037;-65
2023/08/24 03:30:49;;;;;;;13.15;4.30;;;;;;;;;;5007426;28;20055;-65
2023/08/24 03:33:15;;;;;;;10.27;4.28;;;;;;;;;;5011419;28;20025;-65
2023/08/24 03:35:41;;;;;;;12.23;4.10;;;;;;;;;;5021979;28;20134;-65
2023/08/24 03:38:08;;;;;;;10.07;3.92;;;;;;;;;;5016925;28;20057;-65
2023/08/24 03:40:34;;;;;;;8.48;3.63;;;;;;;;;;5014307;28;20025;-66
2023/08/24 03:43:02;;;;;;;10.43;4.30;;;;;;;;;;5016295;28;20037;-65
2023/08/24 03:45:28;;;;;;;9.85;3.85;;;;;;;;;;5017930;28;20156;-66
2023/08/24 03:47:54;;;;;;;11.57;4.28;;;;;;;;;;5020707;28;20382;-67
2023/08/24 03:50:22;;;;;;;11.05;3.80;;;;;;;;;;5017031;28;20304;-67
2023/08/24 03:52:48;;;;;;;8.75;3.90;;;;;;;;;;5018245;28;20032;-65
2023/08/24 03:55:15;;;;;;;10.73;3.78;;;;;;;;;;5014046;28;20640;-65
2023/08/24 03:57:41;;;;;;;9.35;3.88;;;;;;;;;;5018947;28;20030;-65
2023/08/24 04:00:11;;;;;;;11.55;3.92;;;;;;;;;;4999831;28;20032;-65
2023/08/24 04:02:38;;;;;;;9.40;3.90;;;;;;;;;;5018262;28;20739;-66
2023/08/24 04:05:04;;;;;;;10.70;3.95;;;;;;;;;;5016599;28;20554;-65
2023/08/24 04:07:31;;;;;;;10.43;4.32;;;;;;;;;;5018068;28;23786;-65
2023/08/24 04:09:57;;;;;;;14.23;4.35;;;;;;;;;;5017562;28;20033;-66
2023/08/24 04:12:23;;;;;;;9.07;3.88;;;;;;;;;;5011929;28;20547;-65
2023/08/24 04:14:49;;;;;;;9.43;4.35;;;;;;;;;;5016158;28;20028;-66
2023/08/24 04:17:16;;;;;;;9.02;4.18;;;;;;;;;;4998973;28;20132;-66
2023/08/24 04:19:42;;;;;;;8.50;3.90;;;;;;;;;;5018739;28;20068;-65
2023/08/24 04:22:08;;;;;;;9.52;4.20;;;;;;;;;;5015349;28;20544;-65
2023/08/24 04:24:34;;;;;;;9.73;4.55;;;;;;;;;;5012804;28;20163;-66
2023/08/24 04:27:00;;;;;;;9.05;4.25;;;;;;;;;;5015589;28;20547;-65
2023/08/24 04:29:27;;;;;;;9.05;4.30;;;;;;;;;;5010540;28;20368;-65
2023/08/24 04:31:53;;;;;;;9.55;4.30;;;;;;;;;;5017252;28;20251;-65
2023/08/24 04:34:19;;;;;;;10.88;5.10;;;;;;;;;;5013944;28;20533;-67
2023/08/24 04:36:46;;;;;;;11.35;4.63;;;;;;;;;;5015611;28;20114;-65
2023/08/24 04:39:12;;;;;;;10.60;5.10;;;;;;;;;;4994567;28;20353;-65
2023/08/24 04:41:38;;;;;;;13.20;5.00;;;;;;;;;;5013922;28;20040;-67
2023/08/24 04:44:04;;;;;;;13.73;5.53;;;;;;;;;;5018824;28;20488;-66
2023/08/24 04:46:30;;;;;;;15.50;6.00;;;;;;;;;;5010992;28;21018;-65
2023/08/24 04:48:56;;;;;;;13.27;5.40;;;;;;;;;;5015387;28;20424;-65
2023/08/24 04:51:22;;;;;;;13.75;4.95;;;;;;;;;;5014014;28;20486;-65
2023/08/24 04:53:48;;;;;;;13.50;5.32;;;;;;;;;;5015597;28;20025;-65
2023/08/24 04:56:15;;;;;;;15.05;5.53;;;;;;;;;;5010394;28;20099;-65
2023/08/24 04:58:52;;;;;;;12.77;5.40;;;;;;;;;;5014463;28;20130;-65
2023/08/24 05:01:18;;;;;;;12.25;5.03;;;;;;;;;;5015346;28;20033;-65
2023/08/24 05:03:44;;;;;;;12.15;4.70;;;;;;;;;;5016357;28;20124;-66
2023/08/24 05:06:11;;;;;;;12.15;4.85;;;;;;;;;;5014673;28;20118;-65
2023/08/24 05:08:37;;;;;;;14.38;5.30;;;;;;;;;;5016009;28;20021;-65
2023/08/24 05:11:10;;;;;;;12.80;5.25;;;;;;;;;;5016679;28;20029;-67
2023/08/24 05:13:37;;;;;;;16.52;5.22;;;;;;;;;;4999086;28;20024;-66
2023/08/24 05:16:03;;;;;;;13.73;5.68;;;;;;;;;;5018224;28;20480;-64
2023/08/24 05:18:29;;;;;;;10.70;4.90;;;;;;;;;;5015777;28;20029;-67
2023/08/24 05:20:55;;;;;;;10.52;4.75;;;;;;;;;;4996747;28;20028;-66
2023/08/24 05:23:21;;;;;;;14.95;5.75;;;;;;;;;;5015249;28;20474;-67
2023/08/24 05:25:47;;;;;;;13.15;5.38;;;;;;;;;;5016123;28;20123;-66
2023/08/24 05:28:13;;;;;;;12.55;5.35;;;;;;;;;;4999949;28;20044;-65
2023/08/24 05:30:39;;;;;;;11.93;5.15;;;;;;;;;;4994326;28;20033;-65
2023/08/24 05:33:06;;;;;;;14.57;5.07;;;;;;;;;;5015989;28;20063;-65
2023/08/24 05:35:32;;;;;;;15.95;5.18;;;;;;;;;;5011109;28;20060;-66
2023/08/24 05:37:58;;;;;;;15.13;4.95;;;;;;;;;;5010250;28;20740;-65
2023/08/24 05:40:24;;;;;;;10.98;4.72;;;;;;;;;;5008898;28;20139;-65
2023/08/24 05:42:50;;;;;;;12.95;5.28;;;;;;;;;;5016413;28;20029;-66
2023/08/24 05:45:16;;;;;;;10.88;4.88;;;;;;;;;;4996498;28;20124;-66
2023/08/24 05:47:42;;;;;;;12.80;5.22;;;;;;;;;;5017361;28;20125;-66
2023/08/24 05:50:11;;;;;;;15.70;5.20;;;;;;;;;;5014912;28;20558;-66
2023/08/24 05:52:37;;;;;;;14.57;5.63;;;;;;;;;;5001041;28;20028;-67
2023/08/24 05:55:03;;;;;;;13.88;5.68;;;;;;;;;;4999884;28;20198;-67
2023/08/24 05:57:30;;;;;;;16.77;5.47;;;;;;;;;;5014292;28;20041;-66
2023/08/24 05:59:56;;;;;;;15.57;5.22;;;;;;;;;;5014215;28;20029;-66
2023/08/24 06:02:22;;;;;;;13.93;5.75;;;;;;;;;;4991817;28;20045;-66
2023/08/24 06:04:50;;;;;;;16.23;5.63;;;;;;;;;;5013693;28;20041;-65
2023/08/24 06:07:17;;;;;;;11.68;4.93;;;;;;;;;;5011492;28;20642;-67
2023/08/24 06:09:43;;;;;;;13.10;5.78;;;;;;;;;;5013751;28;20309;-66
2023/08/24 06:12:10;;;;;;;13.82;5.45;;;;;;;;;;5014761;28;20112;-66
2023/08/24 06:14:36;;;;;;;12.70;5.47;;;;;;;;;;4999283;28;20033;-65
2023/08/24 06:17:03;;;;;;;13.18;5.82;;;;;;;;;;5016148;28;20123;-65
2023/08/24 06:19:29;;;;;;;12.55;5.60;;;;;;;;;;5012621;28;20437;-65
2023/08/24 06:21:55;;;;;;;15.38;6.10;;;;;;;;;;5015515;28;20031;-65
2023/08/24 06:24:21;;;;;;;17.08;5.85;;;;;;;;;;4996034;28;20049;-66
2023/08/24 06:26:48;;;;;;;13.95;6.38;;;;;;;;;;5017288;28;20140;-66
2023/08/24 06:29:14;;;;;;;13.88;5.97;;;;;;;;;;4994378;28;20072;-65
2023/08/24 06:31:40;;;;;;;18.23;6.00;;;;;;;;;;5019458;28;20513;-65
2023/08/24 06:34:06;;;;;;;15.00;6.13;;;;;;;;;;5018084;28;20048;-67
2023/08/24 06:36:32;;;;;;;15.02;5.75;;;;;;;;;;4993717;28;20061;-66
2023/08/24 06:38:58;;;;;;;18.63;5.35;;;;;;;;;;5015088;28;20392;-67
2023/08/24 06:41:24;;;;;;;17.33;6.15;;;;;;;;;;4999527;28;20048;-67
2023/08/24 06:43:53;;;;;;;13.25;5.30;;;;;;;;;;5015756;28;20036;-67
2023/08/24 06:46:19;;;;;;;14.15;5.38;;;;;;;;;;5001117;28;20151;-67
2023/08/24 06:48:45;;;;;;;14.73;5.40;;;;;;;;;;5016699;28;20578;-64
2023/08/24 06:51:12;;;;;;;12.77;5.65;;;;;;;;;;5019056;28;20471;-67
2023/08/24 06:53:38;;;;;;;14.95;5.72;;;;;;;;;;5002681;28;20593;-66
2023/08/24 06:56:04;;;;;;;15.52;5.40;;;;;;;;;;5020393;28;20026;-67
2023/08/24 06:58:30;;;;;;;12.10;5.00;;;;;;;;;;5018655;28;20127;-67
2023/08/24 07:00:57;;;;;;;14.85;5.20;;;;;;;;;;5022103;28;20036;-67
2023/08/24 07:03:24;;;;;;;16.38;5.28;;;;;;;;;;5019084;28;20048;-67
2023/08/24 07:05:50;;;;;;;13.23;5.32;;;;;;;;;;5017997;28;20013;-65
2023/08/24 07:08:16;;;;;;;13.48;4.47;;;;;;;;;;5018401;28;20135;-65
2023/08/24 07:10:43;;;;;;;9.55;4.53;;;;;;;;;;5023478;28;20037;-65
2023/08/24 07:13:09;;;;;;;14.20;5.15;;;;;;;;;;5021262;28;20157;-66
2023/08/24 07:15:35;;;;;;;13.68;5.40;;;;;;;;;;5015270;28;20135;-66
2023/08/24 07:18:02;;;;;;;16.75;5.72;;;;;;;;;;5017063;28;20029;-66
2023/08/24 07:20:28;;;;;;;13.13;5.05;;;;;;;;;;5020154;28;20653;-66
2023/08/24 07:22:54;;;;;;;12.75;5.15;;;;;;;;;;5022955;28;20484;-66
2023/08/24 07:25:21;;;;;;;12.23;4.68;;;;;;;;;;5003705;28;20684;-66
2023/08/24 07:27:47;;;;;;;15.05;5.30;;;;;;;;;;5007092;28;20079;-66
2023/08/24 07:30:14;;;;;;;14.63;5.30;;;;;;;;;;5015644;28;20618;-65
2023/08/24 07:32:41;;;;;;;15.05;5.13;;;;;;;;;;5020507;28;20482;-66
2023/08/24 07:35:07;;;;;;;14.52;4.82;;;;;;;;;;5001583;28;20136;-65
2023/08/24 07:37:33;;;;;;;11.00;4.70;;;;;;;;;;5000528;28;20282;-65
2023/08/24 07:39:59;;;;;;;12.77;4.78;;;;;;;;;;5004637;28;20083;-66
2023/08/24 07:42:26;;;;;;;15.50;5.43;;;;;;;;;;5017509;28;20148;-66
2023/08/24 07:44:52;;;;;;;20.30;5.07;;;;;;;;;;5006442;28;20033;-65
2023/08/24 07:47:18;;;;;;;13.90;4.70;;;;;;;;;;5018254;28;20557;-65
2023/08/24 07:49:44;;;;;;;13.07;4.25;;;;;;;;;;5002356;28;20398;-65
2023/08/24 07:52:12;;;;;;;10.25;4.22;;;;;;;;;;5002557;28;20396;-66
2023/08/24 07:54:38;;;;;;;10.70;4.20;;;;;;;;;;5020405;28;20025;-66
2023/08/24 07:57:06;;;;;;;17.25;4.50;;;;;;;;;;5000338;28;20037;-66
2023/08/24 07:59:32;;;;;;;9.30;3.88;;;;;;;;;;5018183;28;20462;-65
2023/08/24 08:01:58;;;;;;;12.77;4.30;;;;;;;;;;5021939;28;20111;-65
2023/08/24 08:04:24;;;;;;;12.98;4.28;;;;;;;;;;4997195;28;20554;-65
2023/08/24 08:06:50;;;;;;;11.25;4.38;;;;;;;;;;5006031;28;20112;-65
2023/08/24 08:09:16;;;;;;;13.45;4.35;;;;;;;;;;5017286;28;20465;-65
2023/08/24 08:11:43;;;;;;;13.65;4.47;;;;;;;;;;5004456;28;20095;-65
2023/08/24 08:14:10;;;;;;;11.43;4.65;;;;;;;;;;5021767;28;20040;-66
2023/08/24 08:16:36;;;;;;;10.45;4.22;;;;;;;;;;5002332;28;20043;-66
2023/08/24 08:19:02;;;;;;;13.57;5.05;;;;;;;;;;5018375;28;20571;-66
2023/08/24 08:21:30;;;;;;;12.82;3.97;;;;;;;;;;5018471;28;20037;-66
2023/08/24 08:23:56;;;;;;;12.82;4.47;;;;;;;;;;5019950;28;20027;-66
2023/08/24 08:26:22;;;;;;;9.48;4.07;;;;;;;;;;5017433;28;20529;-65
2023/08/24 08:28:48;;;;;;;9.40;3.97;;;;;;;;;;5001850;28;20025;-68
2023/08/24 08:31:14;;;;;;;9.40;3.85;;;;;;;;;;4998102;28;20680;-67
2023/08/24 08:33:41;;;;;;;11.52;4.20;;;;;;;;;;5013661;28;20254;-65
2023/08/24 08:36:07;;;;;;;14.27;4.93;;;;;;;;;;5015535;28;20353;-68
2023/08/24 08:38:33;;;;;;;10.48;4.13;;;;;;;;;;5018131;28;20111;-66
2023/08/24 08:41:03;;;;;;;10.80;4.38;;;;;;;;;;5019835;28;20242;-66
2023/08/24 08:43:30;;;;;;;12.50;4.40;;;;;;;;;;4997486;28;20021;-66
2023/08/24 08:45:56;;;;;;;14.30;4.28;;;;;;;;;;5001135;28;20040;-66
2023/08/24 08:48:22;;;;;;;10.00;3.92;;;;;;;;;;5016233;28;20468;-66
2023/08/24 08:50:56;;;;;;;10.73;4.15;;;;;;;;;;5018074;28;20506;-66
2023/08/24 08:53:23;;;;;;;9.38;4.28;;;;;;;;;;4997933;28;20032;-66
2023/08/24 08:55:53;;;;;;;9.52;3.97;;;;;;;;;;5022266;28;20056;-66
2023/08/24 08:58:20;;;;;;;9.57;3.90;;;;;;;;;;5016586;28;20024;-67
2023/08/24 09:00:47;;;;;;;11.98;4.00;;;;;;;;;;5019701;28;20051;-66
2023/08/24 09:03:14;;;;;;;10.77;4.20;;;;;;;;;;4997235;28;20121;-66
2023/08/24 09:05:41;;;;;;;12.27;4.28;;;;;;;;;;5020432;28;20034;-66
2023/08/24 09:08:07;;;;;;;13.20;3.67;;;;;;;;;;5001445;28;20578;-67
2023/08/24 09:10:33;;;;;;;10.38;3.45;;;;;;;;;;5015823;28;20648;-67
2023/08/24 09:12:59;;;;;;;8.70;3.30;;;;;;;;;;5017731;28;20036;-68
2023/08/24 09:15:26;;;;;;;8.75;3.58;;;;;;;;;;5014648;28;20107;-67
2023/08/24 09:17:52;;;;;;;9.23;3.70;;;;;;;;;;5021679;28;20128;-66
2023/08/24 09:20:19;;;;;;;7.40;3.10;;;;;;;;;;4997383;28;20036;-66
2023/08/24 09:22:45;;;;;;;8.13;3.63;;;;;;;;;;4998623;28;20101;-69
2023/08/24 09:25:11;;;;;;;13.82;3.90;;;;;;;;;;5015105;28;20185;-66
2023/08/24 09:27:37;;;;;;;10.63;3.60;;;;;;;;;;5017632;28;20317;-67
2023/08/24 09:30:06;;;;;;;8.45;3.33;;;;;;;;;;5019857;28;20062;-67
2023/08/24 09:32:32;;;;;;;10.07;3.90;;;;;;;;;;5016308;28;20123;-67
2023/08/24 09:35:08;;;;;;;9.18;3.50;;;;;;;;;;5018085;28;20041;-68
2023/08/24 09:37:35;;;;;;;7.28;2.90;;;;;;;;;;5012053;28;20148;-67
2023/08/24 09:40:08;;;;;;;8.82;3.42;;;;;;;;;;5019708;28;20132;-67
2023/08/24 09:42:38;;;;;;;8.50;3.22;;;;;;;;;;5009432;28;20507;-67
2023/08/24 09:45:04;;;;;;;8.32;3.30;;;;;;;;;;5017197;28;20685;-67
2023/08/24 09:47:30;;;;;;;10.82;3.47;;;;;;;;;;4996547;28;20028;-66
2023/08/24 09:49:57;;;;;;;10.27;3.15;;;;;;;;;;5000708;28;20041;-66
2023/08/24 09:52:28;;;;;;;9.93;3.28;;;;;;;;;;5011653;28;20083;-66
2023/08/24 09:54:54;;;;;;;7.85;3.30;;;;;;;;;;5014647;28;20309;-66
2023/08/24 09:57:21;;;;;;;8.43;3.30;;;;;;;;;;5000852;28;20289;-67
2023/08/24 09:59:48;;;;;;;9.90;3.40;;;;;;;;;;5014735;28;20455;-67
2023/08/24 10:02:21;;;;;;;10.18;3.25;;;;;;;;;;5014121;28;20060;-67
2023/08/24 10:04:48;;;;;;;8.57;3.40;;;;;;;;;;5000557;28;20110;-67
2023/08/24 10:07:20;;;;;;;9.05;3.05;;;;;;;;;;5016701;28;20564;-67
2023/08/24 10:09:50;;;;;;;7.38;3.20;;;;;;;;;;5018009;28;20035;-67
2023/08/24 10:12:19;;;;;;;7.88;2.90;;;;;;;;;;5013515;28;20079;-67
2023/08/24 10:14:51;;;;;;;9.13;2.95;;;;;;;;;;5016913;28;20029;-67
2023/08/24 10:17:17;;;;;;;8.77;3.08;;;;;;;;;;5010693;28;20120;-66
2023/08/24 10:19:43;;;;;;;7.30;2.90;;;;;;;;;;5018732;28;20045;-67
2023/08/24 10:22:10;;;;;;;11.10;3.28;;;;;;;;;;5016296;28;20033;-66
2023/08/24 10:24:37;;;;;;;9.98;3.53;;;;;;;;;;5014979;28;20036;-66
2023/08/24 10:27:04;;;;;;;6.63;2.83;;;;;;;;;;5000488;28;20361;-67
2023/08/24 10:29:30;;;;;;;7.15;2.70;;;;;;;;;;5016752;28;20312;-67
2023/08/24 10:31:57;;;;;;;8.77;3.28;;;;;;;;;;5016412;28;20371;-67
2023/08/24 10:34:23;;;;;;;7.38;3.10;;;;;;;;;;5017686;28;20050;-66
2023/08/24 10:36:51;;;;;;;8.50;2.83;;;;;;;;;;4993187;28;20125;-67
2023/08/24 10:39:18;;;;;;;12.15;3.15;;;;;;;;;;4974789;28;20045;-67
2023/08/24 10:41:47;;;;;;;10.23;3.13;;;;;;;;;;4976990;28;20026;-67
2023/08/24 10:44:21;;;;;;;8.07;3.10;;;;;;;;;;4975210;28;20038;-67
2023/08/24 10:47:06;;;;;;;9.40;2.70;;;;;;;;;;4977323;28;20104;-67
2023/08/24 10:49:32;;;;;;;7.68;3.13;;;;;;;;;;4976870;28;20264;-66
2023/08/24 10:51:58;;;;;;;8.70;3.17;;;;;;;;;;4979287;28;20767;-67
2023/08/24 10:54:32;;;;;;;8.77;3.10;;;;;;;;;;4977267;28;20113;-67
2023/08/24 10:56:58;;;;;;;6.28;2.75;;;;;;;;;;4975579;28;20037;-67
2023/08/24 10:59:25;;;;;;;7.65;2.88;;;;;;;;;;4977022;28;20117;-68
2023/08/24 11:01:54;;;;;;;11.38;3.50;;;;;;;;;;4977343;28;20022;-67
2023/08/24 11:04:20;;;;;;;11.05;3.20;;;;;;;;;;4975656;28;20113;-67
2023/08/24 11:06:53;;;;;;;7.32;3.33;;;;;;;;;;4979384;28;20362;-67
2023/08/24 11:09:20;;;;;;;8.25;3.35;;;;;;;;;;4978628;28;20548;-68
2023/08/24 11:12:15;;;;;;;11.77;3.10;;;;;;;;;;4984234;28;20022;-68
2023/08/24 11:14:54;;;;;;;10.60;2.97;;;;;;;;;;4975932;28;20505;-68
2023/08/24 11:17:21;;;;;;;7.20;3.10;;;;;;;;;;4978648;28;20407;-67
2023/08/24 11:19:54;;;;;;;7.93;3.10;;;;;;;;;;4982874;28;20375;-67
2023/08/24 11:22:23;;;;;;;9.53;3.00;;;;;;;;;;4975741;28;20033;-68
2023/08/24 11:24:49;;;;;;;10.38;3.30;;;;;;;;;;4979108;28;20034;-67
2023/08/24 11:27:16;;;;;;;13.15;3.60;;;;;;;;;;4980253;28;20038;-67
2023/08/24 11:29:42;;;;;;;12.15;3.83;;;;;;;;;;4983277;28;20017;-67
2023/08/24 11:32:09;;;;;;;10.50;3.30;;;;;;;;;;4981464;28;20410;-67
2023/08/24 11:34:36;;;;;;;7.47;2.63;;;;;;;;;;4974645;28;20026;-67
2023/08/24 11:37:02;;;;;;;7.90;2.63;;;;;;;;;;4992569;28;20624;-68
2023/08/24 11:39:32;;;;;;;10.15;2.95;;;;;;;;;;5018576;28;20318;-67
2023/08/24 11:42:05;;;;;;;13.98;3.47;;;;;;;;;;5019111;28;20029;-68
2023/08/24 11:44:48;;;;;;;9.27;3.10;;;;;;;;;;5021533;28;20932;-67
2023/08/24 11:47:14;;;;;;;8.05;3.08;;;;;;;;;;5015472;28;20032;-67
2023/08/24 11:49:41;;;;;;;8.90;3.60;;;;;;;;;;5020249;28;20036;-67
2023/08/24 11:52:07;;;;;;;8.73;3.13;;;;;;;;;;5000541;28;20626;-67
2023/08/24 11:54:33;;;;;;;15.20;4.07;;;;;;;;;;5014740;28;20037;-68
2023/08/24 11:57:00;;;;;;;12.90;3.78;;;;;;;;;;5019600;28;20075;-67
2023/08/24 11:59:26;;;;;;;11.38;4.25;;;;;;;;;;5019695;28;20518;-67
2023/08/24 12:01:53;;;;;;;11.75;3.70;;;;;;;;;;5020458;28;20278;-69
2023/08/24 12:04:19;;;;;;;17.13;4.45;;;;;;;;;;5012849;28;21237;-67
2023/08/24 12:06:45;;;;;;;11.80;3.88;;;;;;;;;;5016728;28;20607;-67
2023/08/24 12:09:11;;;;;;;14.02;3.60;;;;;;;;;;5016025;28;20032;-68
2023/08/24 12:11:41;;;;;;;15.55;4.00;;;;;;;;;;5014500;28;20344;-68
2023/08/24 12:14:09;;;;;;;12.45;3.60;;;;;;;;;;5016991;28;20029;-68
2023/08/24 12:16:36;;;;;;;11.07;3.40;;;;;;;;;;5015730;28;20036;-68
2023/08/24 12:19:03;;;;;;;18.38;3.50;;;;;;;;;;5014567;28;20029;-68
2023/08/24 12:21:29;;;;;;;11.48;3.20;;;;;;;;;;5013674;28;20035;-68
2023/08/24 12:23:56;;;;;;;33.40;5.30;;;;;;;;;;5000508;28;20735;-68
2023/08/24 12:26:23;;;;;;;11.18;3.88;;;;;;;;;;5014593;28;20063;-68
2023/08/24 12:28:50;;;;;;;16.65;3.78;;;;;;;;;;5016191;28;20021;-68
2023/08/24 12:31:17;;;;;;;15.45;3.50;;;;;;;;;;5013075;28;20035;-68
2023/08/24 12:33:44;;;;;;;10.43;3.20;;;;;;;;;;5003150;28;20029;-68
2023/08/24 12:36:10;;;;;;;15.82;3.97;;;;;;;;;;5017420;28;20080;-67
2023/08/24 12:38:36;;;;;;;17.58;3.67;;;;;;;;;;5018061;28;20402;-68
2023/08/24 12:41:03;;;;;;;15.20;3.38;;;;;;;;;;5017900;28;20206;-68
2023/08/24 12:43:29;;;;;;;25.67;4.88;;;;;;;;;;5013174;28;20498;-68
2023/08/24 12:45:55;;;;;;;9.07;3.20;;;;;;;;;;4997660;28;20767;-68
2023/08/24 12:48:21;;;;;;;10.00;2.83;;;;;;;;;;4997458;28;20025;-68
2023/08/24 12:50:47;;;;;;;8.60;3.10;;;;;;;;;;5018923;28;20060;-68
2023/08/24 12:53:13;;;;;;;9.75;2.80;;;;;;;;;;5012018;28;20033;-68
2023/08/24 12:55:40;;;;;;;10.93;3.17;;;;;;;;;;5018373;28;20028;-68
2023/08/24 12:58:06;;;;;;;8.35;3.35;;;;;;;;;;5013937;28;20352;-68
2023/08/24 13:00:32;;;;;;;6.60;2.90;;;;;;;;;;5018120;28;20102;-69
2023/08/24 13:02:59;;;;;;;7.50;3.05;;;;;;;;;;5015877;28;20988;-69
2023/08/24 13:05:25;;;;;;;11.90;3.97;;;;;;;;;;5009566;28;20367;-69
2023/08/24 13:07:51;;;;;;;10.65;3.40;;;;;;;;;;5016336;28;20026;-69
2023/08/24 13:10:18;;;;;;;9.30;3.03;;;;;;;;;;5016514;28;20031;-68
2023/08/24 13:12:44;;;;;;;23.42;4.70;;;;;;;;;;5002949;28;20582;-68
2023/08/24 13:15:11;;;;;;;14.95;4.10;;;;;;;;;;5017868;28;20160;-68
2023/08/24 13:17:37;;;;;;;16.27;3.40;;;;;;;;;;5017127;28;20467;-68
2023/08/24 13:20:04;;;;;;;11.00;3.58;;;;;;;;;;5015344;28;20450;-68
2023/08/24 13:22:30;;;;;;;9.30;3.40;;;;;;;;;;5012624;28;20333;-68
2023/08/24 13:24:57;;;;;;;10.80;3.40;;;;;;;;;;5000684;28;20419;-68
2023/08/24 13:27:23;;;;;;;8.60;3.28;;;;;;;;;;5015082;28;20043;-68
2023/08/24 13:29:49;;;;;;;8.20;2.88;;;;;;;;;;5016638;28;20031;-68
2023/08/24 13:32:15;;;;;;;8.23;2.92;;;;;;;;;;5012494;28;20139;-68
2023/08/24 13:34:41;;;;;;;10.10;3.38;;;;;;;;;;5016610;28;20036;-68
2023/08/24 13:37:07;;;;;;;8.45;2.90;;;;;;;;;;5015452;28;20088;-68
2023/08/24 13:39:33;;;;;;;7.53;3.00;;;;;;;;;;5013350;28;20032;-67
2023/08/24 13:42:00;;;;;;;7.85;3.03;;;;;;;;;;5002606;28;20530;-67
2023/08/24 13:44:26;;;;;;;10.95;3.22;;;;;;;;;;5011376;28;20536;-69
2023/08/24 13:46:52;;;;;;;8.60;3.22;;;;;;;;;;4997982;28;20116;-67
2023/08/24 13:49:21;;;;;;;8.88;3.30;;;;;;;;;;5012857;28;20032;-69
2023/08/24 13:51:48;;;;;;;14.18;4.43;;;;;;;;;;5012049;28;20376;-67
2023/08/24 13:54:15;;;;;;;11.93;3.40;;;;;;;;;;5011110;28;20509;-68
2023/08/24 13:56:41;;;;;;;19.73;4.18;;;;;;;;;;5015497;28;20018;-68
2023/08/24 13:59:07;;;;;;;11.95;3.80;;;;;;;;;;5012722;28;20113;-68
2023/08/24 14:01:33;;;;;;;9.52;3.35;;;;;;;;;;5012554;28;20029;-68
2023/08/24 14:04:01;;;;;;;9.68;3.50;;;;;;;;;;5012022;28;20047;-68
2023/08/24 14:06:29;;;;;;;9.10;3.00;;;;;;;;;;4994320;28;20592;-68
2023/08/24 14:08:55;;;;;;;6.57;3.00;;;;;;;;;;4995623;28;20372;-70
2023/08/24 14:11:21;;;;;;;8.68;2.83;;;;;;;;;;5010761;28;20454;-68
2023/08/24 14:13:47;;;;;;;8.68;2.90;;;;;;;;;;5017751;28;20127;-68
2023/08/24 14:16:14;;;;;;;7.43;2.80;;;;;;;;;;5012273;28;20021;-68
2023/08/24 14:18:40;;;;;;;8.95;3.20;;;;;;;;;;4998211;28;20041;-68
2023/08/24 14:21:06;;;;;;;7.47;3.20;;;;;;;;;;5012384;28;20233;-69
2023/08/24 14:23:32;;;;;;;9.65;3.20;;;;;;;;;;5009421;28;20578;-68
2023/08/24 14:25:58;;;;;;;8.15;3.40;;;;;;;;;;4998477;28;20115;-68
2023/08/24 14:28:25;;;;;;;10.60;3.30;;;;;;;;;;5014889;28;20037;-68
2023/08/24 14:30:51;;;;;;;7.40;2.97;;;;;;;;;;5016231;28;20086;-67
2023/08/24 14:33:18;;;;;;;7.15;3.00;;;;;;;;;;5013195;28;20038;-67